22ème Rallye Terre des Causses
Championnat de France des Rallyes sur Terre
1 3 MAURIN Julien/URAL Olivier Citroën DS3 WRC A 8W 10:37,4 1
2 1 CUOQ Jean-Marie/GRANDEMANGE Marielle Citroën C4 WRC FA 8W 10:38,6 +00:01,2 +00:01,2 1
3 2 BAUD Lionel/CRAEN Fabien Ford Focus WRC A 8W 10:52,3 +00:14,9 +00:13,7 1
4 4 DURBEC Thibault/RENUCCI Jacques-Julien Citroën DS3 WRC A 8W 10:56,7 +00:19,3 +00:04,4 1
5 14 FALCO Jean-Marc/BOUERI Jonathan Peugeot 208 T16 R 5 11:16,8 +00:39,4 +00:20,1 1
6 18 PONS Xavier/ORIOL Julia Peugeot 208 T16 R 5 11:19,1 +00:41,7 +00:02,3
7 11 GILBERT Quentin/JAMOUL Renaud Skoda Fabia R5 R 5 11:21,1 +00:43,7 +00:02,0
8 12 BERFA Jordan/AUGUSTIN Damien HUYNDAI i20 R5 R 5 11:33,8 +00:56,4 +00:12,7 1
9 54 PELLIER Laurent/NEYRET-GIGOT Benoît Peugeot 208 VTI R 2 11:44,9 +01:07,5 +00:11,1 3
10 59 RIBAUD Quentin/BALME Benoît Peugeot 208 VTI R 2 11:46,8 +01:09,4 +00:01,9 1 2 3
11 56 DE MEVIUS Guillaume/LOUKA Louis Peugeot 208 VTI R 2 11:50,6 +01:13,2 +00:03,8 3
12 55 BLANC Francois-Xavier/DE TURCKHEIM Gilles Peugeot 208 VTI R 2 11:51,6 +01:14,2 +00:01,0 1 2 3
13 16 PETIT Jean-Eric/MAURIN Mathieu Ford Fiesta R5 R 5 11:52,9 +01:15,5 +00:01,3 1
14 5 CHAYNES Gary/TRIBOUT Christian Citroën C4 WRC FA 8W 11:54,2 +01:16,8 +00:01,3 1
15 38 MOREL Jean-Luc/GIDEL Philippe Subaru Impreza WRX FN 4 11:55,0 +01:17,6 +00:00,8
16 60 LARIO Taisko/RYYNANEN Sami Peugeot 208 VTI R 2 11:56,2 +01:18,8 +00:01,2 3
17 61 GAGO Diogo/DEL BARRIO GARCIA Rodolfo Peugeot 208 VTI R 2 11:56,6 +01:19,2 +00:00,4 3
18 50 VEYRARD Didier/TARDY Vincent Subaru Impreza STI FN 4 11:57,8 +01:20,4 +00:01,2
19 40 MARTI Christian/LAVIALE Jean-Marc Mitsubishi Lancer Evo9 N 4 11:59,8 +01:22,4 +00:02,0 1
20 57 LLARENA Efren/FERNANDEZ Sara Peugeot 208 VTI R 2 12:01,5 +01:24,1 +00:01,7 3
21 7 CLOT Charles/LEON Thierry Ford Fiesta WRC A 8W 12:01,7 +01:24,3 +00:00,2 1
22 62 SAHILA Aki/SUORSA Rami Peugeot 208 VTI R 2 12:07,1 +01:29,7 +00:05,4 3
23 37 DESANGLES Yanis/THERON Nicolas Subaru Impreza WRX R 4 12:10,6 +01:33,2 +00:03,5
24 9 FERAUD Cyrille/DUCHEMIN Aymeric Citroën C4 WRC FA 8W 12:11,1 +01:33,7 +00:00,5 1
25 36 SALIN Daniel/SALIN Brigitte Subaru Impreza WRX R 4 12:15,9 +01:38,5 +00:04,8
26 24 FOUQUES Laurent/ESCARTEFIGUE Thomas Subaru Impreza FA 8 12:16,0 +01:38,6 +00:00,1
27 68 CUFFI Tommaso/BOSI Massimiliano Peugeot 208 VTI R 2 12:18,8 +01:41,4 +00:02,8 3
28 39 BENIER Thomas/PRASSE Cédric Subaru Impreza WRX N 4 12:19,1 +01:41,7 +00:00,3 1
29 15 BESSON Jean-Pascal/ROISSAC Patrice Skoda Fabia R5 R 5 12:19,4 +01:42,0 +00:00,3 1
30 27 TARDY Guillaume/CHOUDEY Marc-Emilien Subaru Impreza FA 8 12:20,1 +01:42,7 +00:00,7
31 21 GIRAUD Emmanuel/GIRAUD Grégory Mitsubishi Lancer Evo8 FA 8 12:21,4 +01:44,0 +00:01,3
32 87 SALGUES Gilles/MOUYSSET Jérôme Citroën Saxo T4 FA 6K 12:22,6 +01:45,2 +00:01,2
33 70 PINHEIRO Karl-Alexandre/LE FLOCH Franck Peugeot 208 VTI R 2 12:23,4 +01:46,0 +00:00,8 3
34 63 WAGEMANS Joachim/DU PAN Anton Peugeot 208 VTI R 2 12:25,0 +01:47,6 +00:01,6 3
35 72 TAVENEAU Sam/POINT Clément Peugeot 208 VTI R 2 12:25,9 +01:48,5 +00:00,9 3
36 53 VITAL Jean-Pierre/DECOUZON Pierre Citroën Saxo VTS F2 13 12:26,1 +01:48,7 +00:00,2 1 2
37 17 FRAU Richard/GASTINEL Jean-Francois Ford Fiesta R5 R 5 12:26,5 +01:49,1 +00:00,4 1
38 10 "PIANO"/COTTU Paolo Subaru Impreza WRC FA 8W 12:27,2 +01:49,8 +00:00,7
39 41 FONTAINE Fabien/FONTAINE Bastien Mitsubishi Lancer Evo5 FN 4 12:27,2 +01:49,8
40 43 PUEL Gérard/PUEL Caroline Mitsubishi Lancer Evo8 FN 4 12:30,7 +01:53,3 +00:03,5
41 42 CONDAMINES Florian/DELMAS Cyril Subaru Impreza N 4 12:31,3 +01:53,9 +00:00,6
42 83 MARCHAL Eddy/JOLE Damien Citroën Saxo T4 FA 6K 12:32,0 +01:54,6 +00:00,7 1
43 52 JULIA David/AUBERTIN Ludovic Peugeot 206 Rc F2 14 12:34,2 +01:56,8 +00:02,2 1 2
44 8 RAOUX Jean-Michel/MAGAT Laurent Citroën DS3 WRC A 8W 12:35,5 +01:58,1 +00:01,3 1
45 75 VENTURINI Henri/CORONA Fabrice Peugeot 208 VTI R 2 12:36,1 +01:58,7 +00:00,6 3
46 6 ROUSSET Eric/GOSSET Jean-David Citroën Xsara WRC FA 8W 12:37,5 +02:00,1 +00:01,4
47 103 TEVELLE Cédric/FACCIO Alexandra Peugeot 206 Rc FA 7 12:38,4 +02:01,0 +00:00,9
48 65 BOSCH Florentin/LAZZARINI Jean-Paul Peugeot 208 VTI R 2 12:39,5 +02:02,1 +00:01,1 3
49 64 HAIGH-SMITH Ashley/BURNS Niall Peugeot 208 VTI R 2 12:39,7 +02:02,3 +00:00,2 3
50 116 RAYNAUD Gabriel/JULIEN William Seat Ibiza GTI F2 14 12:42,6 +02:05,2 +00:02,9 1 2
51 30 CHIAVARO Daniel/DUPANLOUP Alexandra Subaru Impreza Sti FA 8 12:43,0 +02:05,6 +00:00,4
52 81 VIALLE Lilian/GHIRARDELLO Manuel Renault Clio R3 R 3 12:43,2 +02:05,8 +00:00,2 1 2
53 20 GAIDOZ Hervé/RICHARD François Subaru Impreza WRX FA 8 12:43,8 +02:06,4 +00:00,6 1
54 44 GUIGNARD Eric/MEFFRE Didier Subaru Impreza N 4 12:46,5 +02:09,1 +00:02,7
55 73 MOLLARD Alexandre/EYMIN PETOT Nicolas Peugeot 208 VTI R 2 12:48,2 +02:10,8 +00:01,7 3
56 25 GIORDANENGO Jimmy/DELAMOTTE Alexis Mitsubishi Lancer Evo7 FA 8 12:48,6 +02:11,2 +00:00,4
57 86 MARCOBAL Thierry/MARCOBAL-BASTIDE Cantin Citroën Saxo T4 FA 6K 12:49,2 +02:11,8 +00:00,6
58 124 MASCLAUX Arnaud/CORMERAIS Loïc Renault Clio Ragnotti F2 14 12:49,5 +02:12,1 +00:00,3 1 2
59 79 JOUINES Rémi/BONICEL Adrien Peugeot 207 Rc R 3 12:50,0 +02:12,6 +00:00,5
60 66 MAISANO Brandon/PEBEYRE Pierre Peugeot 208 VTI R 2 12:51,3 +02:13,9 +00:01,3 3
61 48 PRIOLO Laurent/DALMAS Yannick Mitsubishi Lancer Evo9 N 4 12:51,7 +02:14,3 +00:00,4
62 19 MORDACQ Arnaud/RATIER Marie-Noelle Mitsubishi Lancer Evo9 N 4 12:53,2 +02:15,8 +00:01,5 1
63 23 FILLAYRE Jacques/DERRE Cyril Mitsubishi Lancer Evo4 FA 8 12:53,2 +02:15,8
64 94 JOUINES Jean/CHABBERT Martin Opel Adam Rally R FR2 12:54,3 +02:16,9 +00:01,1
65 95 GOUY Quentin/THILLIEZ Quentin Citroën C2 R2 R 2 12:54,7 +02:17,3 +00:00,4
66 46 LOPEZ Yannick/LOPEZ Brice Subaru Impreza WRX N 4 12:55,5 +02:18,1 +00:00,8
67 84 CHASSANIOL Jacky/CASAMAYOU Jacqueline Citroën Saxo T4 FA 6K 12:58,9 +02:21,5 +00:03,4
68 35 MORDACQ Laurent/MORTIER Hervé Mitsubishi Lancer Evo9 R 4 13:04,2 +02:26,8 +00:05,3 1
69 99 FOTIA Anthony/MILLET Kévin Ford Fiesta R2 R 2 13:04,6 +02:27,2 +00:00,4
70 132 SABATIER Florent/SANTIAGO Thomas Peugeot 106 S16 FA 6 13:07,9 +02:30,5 +00:03,3 1 2
71 97 MARGAILLAN Hugo/POUJOL Sébastien Ford Fiesta R2 R 2 13:08,9 +02:31,5 +00:01,0
72 113 BLANCK Lionel/BLANCK Arnaud Peugeot 206 Rc F2 14 13:09,1 +02:31,7 +00:00,2
73 31 MARON-GIRARD Alain/GRENIER Bernard Mitsubishi Lancer Evo9 FA 8 13:09,5 +02:32,1 +00:00,4
74 91 BERTON Charlotte/TAILLANDIER Thomas Citroën Saxo T4 FA 6K 13:14,1 +02:36,7 +00:04,6
75 125 BELLIARDO Daniel/BRAQUET Jean-Baptiste Peugeot 306 S16 FN 3 13:14,7 +02:37,3 +00:00,6
76 71 RAMBAUD Sébastien/RICOU Brice Peugeot 208 VTI R 2 13:16,6 +02:39,2 +00:01,9 3
77 89 CREPIN Maude/FRANCOIS Léa Citroën Saxo T4 FA 6K 13:17,4 +02:40,0 +00:00,8
78 32 PASQUALINI Pierre/OLLARI Gérard B.M.W. 325i FA 8 13:21,4 +02:44,0 +00:04,0
79 80 GUINCHARD Emmanuel/CHATELAIN Mickaël Peugeot 207 Rc R 3 13:21,6 +02:44,2 +00:00,2
80 33 ROUGIER Régis/SOGNO Emilien Subaru Impreza WRX FA 8 13:23,7 +02:46,3 +00:02,1
81 117 ROUCOULY Mathieu/GILHODES Jean-Louis Peugeot 309 GTI 16S F2 14 13:25,5 +02:48,1 +00:01,8
82 98 DEFANTE Romain/TEMPIER Romain Ford Fiesta R2 R 2 13:25,8 +02:48,4 +00:00,3
83 58 MAGNOU Patrick/MANZO Benoît Peugeot 208 VTI R 2 13:27,2 +02:49,8 +00:01,4 3
84 102 SOUFFEZ Frédéric/PRUVOST Astrid Peugeot 206 Rc FA 7 13:27,6 +02:50,2 +00:00,4 1 2
85 69 AUTIERO Matthieu/ANDREU Axel Peugeot 208 VTI R 2 13:28,5 +02:51,1 +00:00,9 3
86 149 RICHAUD Pascal/SENDJAKEDINE Mikael Suzuki Swift Sport FN 2 13:29,7 +02:52,3 +00:01,2 1 2
87 85 GRIMAUD Roger/GRIMAUD Laurent Citroën Saxo T4 FA 6K 13:31,0 +02:53,6 +00:01,3
88 107 ROCHER Arnaud/PAULHAN Sabine Renault Clio RS FA 7 13:31,0 +02:53,6
89 77 DAZY Jean-Pierre/LOIZEAUX Didier Renault Clio R3 R 3 13:31,0 +02:53,6 1 2
90 96 PUVERIC Gilles/LE BORGNE Didier Peugeot 208 VTI R 2 13:32,5 +02:55,1 +00:01,5
91 88 QUARROZ Damien/VOLPI Cécile Citroën Saxo T4 FA 6K 13:33,4 +02:56,0 +00:00,9
92 115 MORARD Philippe/GROLIER Cédric Citroën ZX 16V F2 14 13:33,6 +02:56,2 +00:00,2
93 138 CAYLA Corentin/DUMAS Bastien Citroën Saxo VTS F2 13 13:33,6 +02:56,2
94 111 PILLARD Cédric/NOHARET Laurent Peugeot 206 Rc F2 14 13:34,0 +02:56,6 +00:00,4 1 2
95 28 GIL Stéphane/MORGET Arnaud Subaru Impreza WRX FA 8 13:34,8 +02:57,4 +00:00,8
96 112 REGORD Hervé/REGORD Camille Peugeot 205 GTI F2 14 13:35,1 +02:57,7 +00:00,3 1 2
97 90 COLOMBE Geoffroy/FABREGUE Régis Peugeot 206 XS FA 6K 13:36,4 +02:59,0 +00:01,3
98 120 RIEU Vincent/DEIXONNE Charles Renault Clio Ragnotti F2 14 13:38,3 +03:00,9 +00:01,9
99 92 BRENIAUX Sébastien/JACQUES Anthony Peugeot 206 XS FA 6K 13:38,4 +03:01,0 +00:00,1
100 76 COLNEY Thierry/FORTMANN Patrick Citroën DS3 R3 R 3 13:42,3 +03:04,9 +00:03,9 1 2
101 114 BOUZID Lilian/VERGNES Antony Peugeot 306 S16 F2 14 13:49,3 +03:11,9 +00:07,0
102 123 BALMONET/MONICO Celia Peugeot 309 GTI F2 14 13:53,1 +03:15,7 +00:03,8
103 134 RALITE Christophe/ABBAL Marie Peugeot 106 S16 FA 6 13:56,9 +03:19,5 +00:03,8
104 145 BRISSON Eddy/MASSON Pascal Suzuki Swift FN 2 13:57,1 +03:19,7 +00:00,2
105 127 LESCURE Philippe/ESCAICH Bertrand Peugeot 306 S16 FN 3 13:59,1 +03:21,7 +00:02,0
106 78 BOUCHET Guillaume/BLAMPEY Fabien Peugeot 207 Rc R 3 14:00,9 +03:23,5 +00:01,8
107 135 RAMEL Olivier/BODENMANN Jacques-Victor Peugeot 106 GT FA 6 14:03,4 +03:26,0 +00:02,5
108 146 DOLGOPYATOFF Damien/FRANCOIS Solene Suzuki Swift FN 2 14:06,0 +03:28,6 +00:02,6
109 45 ECK Jean-Luc/ECK Aurélien Subaru Impreza N 4 14:11,2 +03:33,8 +00:05,2
110 152 VUITTENEZ Victorien/COTE COLISSON Maxime Peugeot 106 XSI FN 1 14:15,7 +03:38,3 +00:04,5
111 136 FOURNIER Nicolas/VATTEAU Kévin Peugeot 206 XS F2 13 14:16,0 +03:38,6 +00:00,3
112 126 VANTILLARD Jean-Marc/DARRAS Pascaline Peugeot 206 Rc FN 3 14:20,1 +03:42,7 +00:04,1
113 142 BRENGUES Jean-Marie/BRENGUES Mélanie Peugeot 205 GTI F2 13 14:21,2 +03:43,8 +00:01,1
114 67 JAMET Jérémy/SECACHE Michaël Peugeot 208 VTI R 2 14:24,9 +03:47,5 +00:03,7 3
115 150 VAILLE Mickaël/SAVA-LOPEZ Sabrina Peugeot 205 GTI FN 2 14:26,9 +03:49,5 +00:02,0
116 106 GELLUSSEAU Luc/DEJOUX Charly Peugeot 306 S16 FA 7 14:27,9 +03:50,5 +00:01,0
117 139 GELY Michel/VALENTIN Cédric Peugeot 206 XS F2 13 14:36,0 +03:58,6 +00:08,1
118 148 LATIEZE Yvan/GOUY Cindy Peugeot 106 S16 FN 2 14:43,1 +04:05,7 +00:07,1
119 140 VAYSSE Adrien/LAURENS Clément Peugeot 106 S16 F2 13 14:44,7 +04:07,3 +00:01,6
120 105 GAUTHIER Bernard/BLANQUET Muriel Peugeot 306 S16 FA 7 14:55,1 +04:17,7 +00:10,4
121 129 GAGNEUR Hervé/LEIBENGUTH Christophe Peugeot 306 S16 FN 3 14:56,4 +04:19,0 +00:01,3
122 144 TODESCHINI Florent/PORCHERON Giovanni Dacia Logan F2 13 14:57,0 +04:19,6 +00:00,6
123 122 VIDAL Marc/MONTARON Loïc Peugeot 309 GTI F2 14 15:00,7 +04:23,3 +00:03,7
124 110 CLEMENT Frédéric/COSTES François Peugeot 206 GT F2 14 15:01,8 +04:24,4 +00:01,1 1 2
125 154 BES Yves/LE PICHON Christelle Peugeot 106 XR F2 11 15:06,1 +04:28,7 +00:04,3
126 153 CEUGNET Sébastien/LUCON Pascal Peugeot 106 XSI FN 1 15:08,2 +04:30,8 +00:02,1
127 104 FRELAUT Yohann/CASSAGNADE Pascal Peugeot 206 Rc FA 7 15:08,6 +04:31,2 +00:00,4
128 108 GUILLON Jean-Luc/GUILLON Thibault Peugeot 206 GT FA 7 15:11,4 +04:34,0 +00:02,8
129 137 RAKOTOMALALA Andry/GORGET Chloé Peugeot 106 S16 F2 13 15:15,9 +04:38,5 +00:04,5
130 151 ROCHE Ivan/GREVOT Florian Peugeot 106 XSI F2 12 15:19,4 +04:42,0 +00:03,5 1 2
131 130 RESSOUCHE Charlotte/BARDOUX Pauline Ford Fiesta ST N 3 15:20,9 +04:43,5 +00:01,5
132 141 PICARD Erick/PONTILLE Hervé Dacia Logan F2 13 15:30,8 +04:53,4 +00:09,9
133 26 GLEY Jean-Pierre/AUBANEL Aurélien B.M.W. 325 iX FA 8 15:41,0 +05:03,6 +00:10,2
134 155 SOUBIROUX Vincent/VIGUIE Florian Renault Clio F2 11 16:26,5 +05:49,1 +00:45,5
135 147 DI PAOLO Alain/MORILLON Frederika Peugeot 106 S16 FN 2 16:34,1 +05:56,7 +00:07,6
136 47 CAMPAGNOLI Gabriele/ARENA Nicola Subaru Impreza WRX N 4 16:55,7 +06:18,3 +00:21,6
137 119 MOULIN François/BONNET Dorine Renault Clio RS F2 14 28:33,0 +17:55,6 +11:37,3
138 118 SANHES Yves/SANHES Christine B.M.W. 318i Compact F2 14 36:15,6 +25:38,2 +07:42,6
Clt Equipage Voiture Gr/Cl Temps Ecart 1er Ecart préc. Catégories
Commentaires: © PatricK Soft  
(Temps forfaitaires=couleur bleue)
Classés:138

Epreuve: Groupe: Catégorie:

 
Retour
Classement après ES2-La Bouyssière - Foissac (6.000 km)